sensor_id;sensor_type;location;lat;lon;timestamp;pressure;altitude;pressure_sealevel;temperature;humidity
45275;BME280;31019;43.780;25.948;2022-09-09T00:01:28;101056.94;;;19.83;100.00
45275;BME280;31019;43.780;25.948;2022-09-09T00:04:00;101055.59;;;19.86;100.00
45275;BME280;31019;43.780;25.948;2022-09-09T00:06:30;101058.28;;;19.86;100.00
45275;BME280;31019;43.780;25.948;2022-09-09T00:11:41;101059.06;;;19.81;100.00
45275;BME280;31019;43.780;25.948;2022-09-09T00:14:11;101058.81;;;19.83;100.00
45275;BME280;31019;43.780;25.948;2022-09-09T00:16:39;101059.66;;;19.88;100.00
45275;BME280;31019;43.780;25.948;2022-09-09T00:19:12;101058.34;;;19.91;100.00
45275;BME280;31019;43.780;25.948;2022-09-09T00:21:43;101063.06;;;19.79;100.00
45275;BME280;31019;43.780;25.948;2022-09-09T00:24:14;101063.59;;;19.43;100.00
45275;BME280;31019;43.780;25.948;2022-09-09T00:26:51;101061.59;;;19.29;100.00
45275;BME280;31019;43.780;25.948;2022-09-09T00:29:21;101066.94;;;19.56;100.00
45275;BME280;31019;43.780;25.948;2022-09-09T00:31:53;101063.25;;;19.35;100.00
45275;BME280;31019;43.780;25.948;2022-09-09T00:34:23;101073.38;;;19.22;100.00
45275;BME280;31019;43.780;25.948;2022-09-09T00:36:50;101072.28;;;18.96;100.00
45275;BME280;31019;43.780;25.948;2022-09-09T00:39:20;101072.31;;;18.52;100.00
45275;BME280;31019;43.780;25.948;2022-09-09T00:41:50;101072.31;;;18.52;100.00
45275;BME280;31019;43.780;25.948;2022-09-09T00:44:25;101061.13;;;18.83;100.00
45275;BME280;31019;43.780;25.948;2022-09-09T00:46:59;101057.06;;;18.80;100.00
45275;BME280;31019;43.780;25.948;2022-09-09T00:49:33;101063.16;;;18.97;100.00
45275;BME280;31019;43.780;25.948;2022-09-09T00:52:05;101062.16;;;19.04;100.00
45275;BME280;31019;43.780;25.948;2022-09-09T00:54:40;101061.66;;;19.39;100.00
45275;BME280;31019;43.780;25.948;2022-09-09T00:57:17;101058.94;;;19.34;100.00
45275;BME280;31019;43.780;25.948;2022-09-09T00:59:50;101057.53;;;19.58;100.00
45275;BME280;31019;43.780;25.948;2022-09-09T01:02:20;101066.47;;;19.64;100.00
45275;BME280;31019;43.780;25.948;2022-09-09T01:04:48;101054.03;;;19.63;100.00
45275;BME280;31019;43.780;25.948;2022-09-09T01:07:16;101051.53;;;19.51;100.00
45275;BME280;31019;43.780;25.948;2022-09-09T01:09:46;101048.13;;;19.61;100.00
45275;BME280;31019;43.780;25.948;2022-09-09T01:12:25;101054.56;;;19.60;100.00
45275;BME280;31019;43.780;25.948;2022-09-09T01:15:03;101050.00;;;19.28;100.00
45275;BME280;31019;43.780;25.948;2022-09-09T01:17:31;101053.97;;;18.49;100.00
45275;BME280;31019;43.780;25.948;2022-09-09T01:20:04;101051.47;;;18.87;100.00
45275;BME280;31019;43.780;25.948;2022-09-09T01:22:35;101048.19;;;18.80;100.00
45275;BME280;31019;43.780;25.948;2022-09-09T01:27:52;101044.84;;;19.27;100.00
45275;BME280;31019;43.780;25.948;2022-09-09T01:30:21;101035.03;;;19.42;100.00
45275;BME280;31019;43.780;25.948;2022-09-09T01:32:48;101037.91;;;19.31;100.00
45275;BME280;31019;43.780;25.948;2022-09-09T01:35:17;101025.47;;;19.25;100.00
45275;BME280;31019;43.780;25.948;2022-09-09T01:37:58;101026.13;;;19.37;100.00
45275;BME280;31019;43.780;25.948;2022-09-09T01:40:25;101027.34;;;19.56;100.00
45275;BME280;31019;43.780;25.948;2022-09-09T01:42:53;101029.97;;;19.51;100.00
45275;BME280;31019;43.780;25.948;2022-09-09T01:45:23;101024.59;;;19.51;100.00
45275;BME280;31019;43.780;25.948;2022-09-09T01:47:50;101024.53;;;19.41;100.00
45275;BME280;31019;43.780;25.948;2022-09-09T01:50:17;101029.69;;;19.48;100.00
45275;BME280;31019;43.780;25.948;2022-09-09T01:52:44;101024.06;;;19.54;100.00
45275;BME280;31019;43.780;25.948;2022-09-09T01:55:12;101020.31;;;19.55;100.00
45275;BME280;31019;43.780;25.948;2022-09-09T01:57:41;101021.59;;;19.48;100.00
45275;BME280;31019;43.780;25.948;2022-09-09T02:02:51;101031.63;;;19.52;100.00
45275;BME280;31019;43.780;25.948;2022-09-09T02:05:30;101029.63;;;19.37;100.00
45275;BME280;31019;43.780;25.948;2022-09-09T02:08:05;101036.50;;;19.23;100.00
45275;BME280;31019;43.780;25.948;2022-09-09T02:10:37;101034.53;;;19.13;100.00
45275;BME280;31019;43.780;25.948;2022-09-09T02:13:09;101032.94;;;18.90;100.00
45275;BME280;31019;43.780;25.948;2022-09-09T02:15:40;101026.84;;;19.00;100.00
45275;BME280;31019;43.780;25.948;2022-09-09T02:18:32;101020.34;;;18.96;100.00
45275;BME280;31019;43.780;25.948;2022-09-09T02:21:04;101023.09;;;19.01;100.00
45275;BME280;31019;43.780;25.948;2022-09-09T02:23:33;101028.56;;;18.84;100.00
45275;BME280;31019;43.780;25.948;2022-09-09T02:26:20;101025.88;;;18.84;100.00
45275;BME280;31019;43.780;25.948;2022-09-09T02:28:52;101034.47;;;18.81;100.00
45275;BME280;31019;43.780;25.948;2022-09-09T02:31:27;101037.44;;;18.85;100.00
45275;BME280;31019;43.780;25.948;2022-09-09T02:34:03;101035.78;;;18.79;100.00
45275;BME280;31019;43.780;25.948;2022-09-09T02:36:41;101041.41;;;18.55;100.00
45275;BME280;31019;43.780;25.948;2022-09-09T02:39:13;101051.22;;;18.44;100.00
45275;BME280;31019;43.780;25.948;2022-09-09T02:41:40;101053.91;;;18.22;100.00
45275;BME280;31019;43.780;25.948;2022-09-09T02:44:12;101055.84;;;18.27;100.00
45275;BME280;31019;43.780;25.948;2022-09-09T02:46:47;101052.09;;;17.89;100.00
45275;BME280;31019;43.780;25.948;2022-09-09T02:49:23;101047.75;;;17.88;100.00
45275;BME280;31019;43.780;25.948;2022-09-09T02:51:56;101051.28;;;17.89;100.00
45275;BME280;31019;43.780;25.948;2022-09-09T02:54:27;101046.94;;;17.37;100.00
45275;BME280;31019;43.780;25.948;2022-09-09T02:57:06;101051.19;;;17.50;100.00
45275;BME280;31019;43.780;25.948;2022-09-09T02:59:38;101052.88;;;17.39;100.00
45275;BME280;31019;43.780;25.948;2022-09-09T03:02:12;101043.47;;;17.70;100.00
45275;BME280;31019;43.780;25.948;2022-09-09T03:04:47;101043.50;;;18.09;100.00
45275;BME280;31019;43.780;25.948;2022-09-09T03:07:19;101042.72;;;17.92;100.00
45275;BME280;31019;43.780;25.948;2022-09-09T03:09:47;101043.19;;;18.27;100.00
45275;BME280;31019;43.780;25.948;2022-09-09T03:12:27;101042.84;;;18.19;100.00
45275;BME280;31019;43.780;25.948;2022-09-09T03:15:04;101042.97;;;18.51;100.00
45275;BME280;31019;43.780;25.948;2022-09-09T03:17:34;101037.72;;;18.61;100.00
45275;BME280;31019;43.780;25.948;2022-09-09T03:20:03;101025.31;;;18.60;100.00
45275;BME280;31019;43.780;25.948;2022-09-09T03:22:31;101020.47;;;18.79;100.00
45275;BME280;31019;43.780;25.948;2022-09-09T03:25:20;101022.81;;;18.53;100.00
45275;BME280;31019;43.780;25.948;2022-09-09T03:27:49;101023.44;;;18.39;100.00
45275;BME280;31019;43.780;25.948;2022-09-09T03:30:18;101025.00;;;18.79;100.00
45275;BME280;31019;43.780;25.948;2022-09-09T03:32:49;101015.91;;;18.85;100.00
45275;BME280;31019;43.780;25.948;2022-09-09T03:35:21;101025.00;;;18.79;100.00
45275;BME280;31019;43.780;25.948;2022-09-09T03:37:49;101026.50;;;18.91;100.00
45275;BME280;31019;43.780;25.948;2022-09-09T03:40:21;101017.28;;;18.87;100.00
45275;BME280;31019;43.780;25.948;2022-09-09T03:42:52;101023.47;;;18.83;100.00
45275;BME280;31019;43.780;25.948;2022-09-09T03:45:28;101021.28;;;18.80;100.00
45275;BME280;31019;43.780;25.948;2022-09-09T03:47:55;101031.47;;;18.77;100.00
45275;BME280;31019;43.780;25.948;2022-09-09T03:50:39;101027.53;;;18.85;100.00
45275;BME280;31019;43.780;25.948;2022-09-09T03:53:26;101025.31;;;18.60;100.00
45275;BME280;31019;43.780;25.948;2022-09-09T03:55:59;101022.50;;;18.72;100.00
45275;BME280;31019;43.780;25.948;2022-09-09T03:58:27;101037.78;;;18.44;100.00
45275;BME280;31019;43.780;25.948;2022-09-09T04:00:55;101025.38;;;18.65;100.00
45275;BME280;31019;43.780;25.948;2022-09-09T04:03:22;101026.00;;;18.72;100.00
45275;BME280;31019;43.780;25.948;2022-09-09T04:05:59;101033.34;;;18.77;100.00
45275;BME280;31019;43.780;25.948;2022-09-09T04:08:30;101025.63;;;18.64;100.00
45275;BME280;31019;43.780;25.948;2022-09-09T04:11:10;101032.06;;;18.85;100.00
45275;BME280;31019;43.780;25.948;2022-09-09T04:13:41;101034.72;;;18.80;100.00
45275;BME280;31019;43.780;25.948;2022-09-09T04:16:13;101038.53;;;18.84;100.00
45275;BME280;31019;43.780;25.948;2022-09-09T04:18:40;101026.53;;;18.96;100.00
45275;BME280;31019;43.780;25.948;2022-09-09T04:21:08;101030.09;;;19.02;100.00
45275;BME280;31019;43.780;25.948;2022-09-09T04:23:37;101036.59;;;19.06;100.00
45275;BME280;31019;43.780;25.948;2022-09-09T04:26:04;101041.53;;;19.14;100.00
45275;BME280;31019;43.780;25.948;2022-09-09T04:28:42;101033.06;;;19.01;100.00
45275;BME280;31019;43.780;25.948;2022-09-09T04:31:10;101031.81;;;19.13;100.00
45275;BME280;31019;43.780;25.948;2022-09-09T04:33:43;101038.09;;;19.24;100.00
45275;BME280;31019;43.780;25.948;2022-09-09T04:36:16;101041.13;;;19.28;100.00
45275;BME280;31019;43.780;25.948;2022-09-09T04:38:48;101037.94;;;19.36;100.00
45275;BME280;31019;43.780;25.948;2022-09-09T04:41:16;101030.13;;;19.66;100.00
45275;BME280;31019;43.780;25.948;2022-09-09T04:43:44;101036.00;;;19.63;100.00
45275;BME280;31019;43.780;25.948;2022-09-09T04:46:20;101042.81;;;19.71;100.00
45275;BME280;31019;43.780;25.948;2022-09-09T04:49:12;101052.50;;;19.67;100.00
45275;BME280;31019;43.780;25.948;2022-09-09T04:51:40;101042.34;;;19.79;100.00
45275;BME280;31019;43.780;25.948;2022-09-09T04:54:08;101042.09;;;19.81;100.00
45275;BME280;31019;43.780;25.948;2022-09-09T04:56:39;101034.59;;;19.88;100.00
45275;BME280;31019;43.780;25.948;2022-09-09T04:59:10;101031.47;;;20.06;100.00
45275;BME280;31019;43.780;25.948;2022-09-09T05:01:37;101042.78;;;20.03;100.00
45275;BME280;31019;43.780;25.948;2022-09-09T05:04:04;101040.47;;;20.27;100.00
45275;BME280;31019;43.780;25.948;2022-09-09T05:06:34;101044.84;;;20.44;100.00
45275;BME280;31019;43.780;25.948;2022-09-09T05:09:06;101047.91;;;20.57;100.00
45275;BME280;31019;43.780;25.948;2022-09-09T05:11:41;101049.78;;;20.57;100.00
45275;BME280;31019;43.780;25.948;2022-09-09T05:14:11;101043.38;;;20.73;100.00
45275;BME280;31019;43.780;25.948;2022-09-09T05:17:02;101041.47;;;20.74;100.00
45275;BME280;31019;43.780;25.948;2022-09-09T05:19:32;101038.28;;;20.97;100.00
45275;BME280;31019;43.780;25.948;2022-09-09T05:22:12;101043.13;;;20.85;100.00
45275;BME280;31019;43.780;25.948;2022-09-09T05:24:55;101035.59;;;20.92;100.00
45275;BME280;31019;43.780;25.948;2022-09-09T05:27:24;101045.06;;;21.15;100.00
45275;BME280;31019;43.780;25.948;2022-09-09T05:29:53;101033.75;;;21.39;100.00
45275;BME280;31019;43.780;25.948;2022-09-09T05:32:25;101039.16;;;21.39;100.00
45275;BME280;31019;43.780;25.948;2022-09-09T05:34:52;101028.59;;;21.63;100.00
45275;BME280;31019;43.780;25.948;2022-09-09T05:37:35;101035.16;;;22.47;100.00
45275;BME280;31019;43.780;25.948;2022-09-09T05:40:16;101029.69;;;23.41;100.00
45275;BME280;31019;43.780;25.948;2022-09-09T05:42:44;101031.75;;;23.20;100.00
45275;BME280;31019;43.780;25.948;2022-09-09T05:45:11;101023.34;;;23.27;100.00
45275;BME280;31019;43.780;25.948;2022-09-09T05:47:38;101026.56;;;23.58;100.00
45275;BME280;31019;43.780;25.948;2022-09-09T05:50:07;101030.88;;;23.59;100.00
45275;BME280;31019;43.780;25.948;2022-09-09T05:52:41;101013.53;;;23.31;100.00
45275;BME280;31019;43.780;25.948;2022-09-09T05:55:20;101015.78;;;23.24;100.00
45275;BME280;31019;43.780;25.948;2022-09-09T05:57:50;101010.78;;;23.02;100.00
45275;BME280;31019;43.780;25.948;2022-09-09T06:00:21;101017.28;;;23.01;100.00
45275;BME280;31019;43.780;25.948;2022-09-09T06:02:50;101017.31;;;22.96;100.00
45275;BME280;31019;43.780;25.948;2022-09-09T06:05:18;101009.25;;;23.25;100.00
45275;BME280;31019;43.780;25.948;2022-09-09T06:07:48;101009.22;;;23.30;100.00
45275;BME280;31019;43.780;25.948;2022-09-09T06:10:19;101008.47;;;23.83;100.00
45275;BME280;31019;43.780;25.948;2022-09-09T06:12:51;100997.63;;;23.83;100.00
45275;BME280;31019;43.780;25.948;2022-09-09T06:15:20;100998.78;;;24.00;100.00
45275;BME280;31019;43.780;25.948;2022-09-09T06:17:47;100996.00;;;24.06;99.02
45275;BME280;31019;43.780;25.948;2022-09-09T06:20:15;100995.34;;;24.14;100.00
45275;BME280;31019;43.780;25.948;2022-09-09T06:22:43;100999.19;;;24.32;100.00
45275;BME280;31019;43.780;25.948;2022-09-09T06:25:15;101000.47;;;24.39;97.22
45275;BME280;31019;43.780;25.948;2022-09-09T06:27:52;101001.25;;;24.45;98.05
45275;BME280;31019;43.780;25.948;2022-09-09T06:30:23;100998.09;;;24.76;94.33
45275;BME280;31019;43.780;25.948;2022-09-09T06:33:04;100992.91;;;24.93;97.08
45275;BME280;31019;43.780;25.948;2022-09-09T06:35:34;100999.66;;;25.33;100.00
45275;BME280;31019;43.780;25.948;2022-09-09T06:38:07;100998.13;;;25.27;94.93
45275;BME280;31019;43.780;25.948;2022-09-09T06:40:46;100993.50;;;25.09;92.69
45275;BME280;31019;43.780;25.948;2022-09-09T06:43:30;100998.50;;;25.21;92.78
45275;BME280;31019;43.780;25.948;2022-09-09T06:46:05;101000.66;;;25.38;93.01
45275;BME280;31019;43.780;25.948;2022-09-09T06:48:34;101002.81;;;25.68;88.63
45275;BME280;31019;43.780;25.948;2022-09-09T06:51:04;100987.53;;;25.72;92.02
45275;BME280;31019;43.780;25.948;2022-09-09T06:53:36;100992.50;;;25.84;85.09
45275;BME280;31019;43.780;25.948;2022-09-09T06:56:18;100990.75;;;26.02;90.72
45275;BME280;31019;43.780;25.948;2022-09-09T06:58:55;101012.84;;;25.87;87.15
45275;BME280;31019;43.780;25.948;2022-09-09T07:01:25;101003.69;;;25.83;96.75
45275;BME280;31019;43.780;25.948;2022-09-09T07:03:53;101001.66;;;25.88;92.34
45275;BME280;31019;43.780;25.948;2022-09-09T07:06:21;101001.16;;;26.14;86.93
45275;BME280;31019;43.780;25.948;2022-09-09T07:08:56;100997.44;;;26.23;88.30
45275;BME280;31019;43.780;25.948;2022-09-09T07:11:32;100989.94;;;26.57;81.60
45275;BME280;31019;43.780;25.948;2022-09-09T07:14:04;101005.56;;;26.37;87.25
45275;BME280;31019;43.780;25.948;2022-09-09T07:16:31;100993.69;;;26.33;90.82
45275;BME280;31019;43.780;25.948;2022-09-09T07:18:58;100989.78;;;26.62;79.15
45275;BME280;31019;43.780;25.948;2022-09-09T07:21:28;100988.91;;;26.89;80.95
45275;BME280;31019;43.780;25.948;2022-09-09T07:23:57;100993.44;;;27.16;78.77
45275;BME280;31019;43.780;25.948;2022-09-09T07:26:30;100991.22;;;27.49;72.13
45275;BME280;31019;43.780;25.948;2022-09-09T07:28:57;100995.44;;;27.55;70.14
45275;BME280;31019;43.780;25.948;2022-09-09T07:31:32;100994.63;;;27.55;65.01
45275;BME280;31019;43.780;25.948;2022-09-09T07:34:06;100996.50;;;27.77;68.14
45275;BME280;31019;43.780;25.948;2022-09-09T07:36:33;100994.53;;;28.00;70.44
45275;BME280;31019;43.780;25.948;2022-09-09T07:39:14;100997.13;;;28.22;65.94
45275;BME280;31019;43.780;25.948;2022-09-09T07:41:56;100996.25;;;27.96;64.99
45275;BME280;31019;43.780;25.948;2022-09-09T07:44:26;100997.44;;;28.12;58.97
45275;BME280;31019;43.780;25.948;2022-09-09T07:47:10;101010.38;;;28.55;60.71
45275;BME280;31019;43.780;25.948;2022-09-09T07:49:38;101005.25;;;28.53;57.92
45275;BME280;31019;43.780;25.948;2022-09-09T07:52:06;101007.50;;;28.51;62.28
45275;BME280;31019;43.780;25.948;2022-09-09T07:54:40;101009.91;;;28.88;58.20
45275;BME280;31019;43.780;25.948;2022-09-09T07:57:11;101008.47;;;29.08;56.77
45275;BME280;31019;43.780;25.948;2022-09-09T07:59:40;101001.72;;;28.96;56.01
45275;BME280;31019;43.780;25.948;2022-09-09T08:02:20;100999.00;;;29.05;60.77
45275;BME280;31019;43.780;25.948;2022-09-09T08:04:54;100994.59;;;29.30;60.46
45275;BME280;31019;43.780;25.948;2022-09-09T08:07:21;100994.53;;;29.56;58.56
45275;BME280;31019;43.780;25.948;2022-09-09T08:09:49;101000.19;;;29.42;58.11
45275;BME280;31019;43.780;25.948;2022-09-09T08:12:16;100997.88;;;29.71;58.75
45275;BME280;31019;43.780;25.948;2022-09-09T08:14:47;101000.63;;;29.62;57.31
45275;BME280;31019;43.780;25.948;2022-09-09T08:17:16;101004.91;;;29.80;54.65
45275;BME280;31019;43.780;25.948;2022-09-09T08:20:05;101002.72;;;30.03;54.01
45275;BME280;31019;43.780;25.948;2022-09-09T08:22:33;101012.97;;;30.15;51.99
45275;BME280;31019;43.780;25.948;2022-09-09T08:25:04;101006.72;;;29.76;58.80
45275;BME280;31019;43.780;25.948;2022-09-09T08:27:41;100996.44;;;29.64;57.15
45275;BME280;31019;43.780;25.948;2022-09-09T08:30:11;100981.66;;;30.25;47.08
45275;BME280;31019;43.780;25.948;2022-09-09T08:32:39;100977.16;;;30.29;47.27
45275;BME280;31019;43.780;25.948;2022-09-09T08:35:23;100979.72;;;30.46;47.74
45275;BME280;31019;43.780;25.948;2022-09-09T08:38:03;100974.69;;;30.78;47.62
45275;BME280;31019;43.780;25.948;2022-09-09T08:40:32;100974.00;;;30.39;50.07
45275;BME280;31019;43.780;25.948;2022-09-09T08:43:03;100963.78;;;31.02;46.49
45275;BME280;31019;43.780;25.948;2022-09-09T08:45:41;100970.00;;;31.24;47.29
45275;BME280;31019;43.780;25.948;2022-09-09T08:48:35;100962.59;;;30.91;49.03
45275;BME280;31019;43.780;25.948;2022-09-09T08:51:10;100953.97;;;31.47;48.61
45275;BME280;31019;43.780;25.948;2022-09-09T08:53:39;100941.03;;;31.72;45.62
45275;BME280;31019;43.780;25.948;2022-09-09T08:56:14;100939.44;;;31.83;48.56
45275;BME280;31019;43.780;25.948;2022-09-09T08:58:51;100943.91;;;32.00;42.81
45275;BME280;31019;43.780;25.948;2022-09-09T09:01:27;100944.09;;;32.07;42.46
45275;BME280;31019;43.780;25.948;2022-09-09T09:04:06;100954.75;;;32.61;43.94
45275;BME280;31019;43.780;25.948;2022-09-09T09:06:42;100947.78;;;32.11;44.43
45275;BME280;31019;43.780;25.948;2022-09-09T09:09:18;100937.97;;;31.16;48.00
45275;BME280;31019;43.780;25.948;2022-09-09T09:11:53;100920.13;;;32.32;43.39
45275;BME280;31019;43.780;25.948;2022-09-09T09:14:29;100929.19;;;32.61;43.25
45275;BME280;31019;43.780;25.948;2022-09-09T09:16:56;100932.25;;;31.91;45.97
45275;BME280;31019;43.780;25.948;2022-09-09T09:19:32;100932.25;;;32.31;45.89
45275;BME280;31019;43.780;25.948;2022-09-09T09:22:05;100939.31;;;31.80;46.39
45275;BME280;31019;43.780;25.948;2022-09-09T09:24:48;100944.91;;;32.20;48.09
45275;BME280;31019;43.780;25.948;2022-09-09T09:27:21;100936.47;;;32.53;43.88
45275;BME280;31019;43.780;25.948;2022-09-09T09:30:04;100929.91;;;32.17;44.35
45275;BME280;31019;43.780;25.948;2022-09-09T09:32:35;100927.63;;;32.20;45.31
45275;BME280;31019;43.780;25.948;2022-09-09T09:35:15;100912.75;;;32.49;47.71
45275;BME280;31019;43.780;25.948;2022-09-09T09:37:48;100913.72;;;32.28;46.93
45275;BME280;31019;43.780;25.948;2022-09-09T09:40:15;100913.19;;;32.79;41.35
45275;BME280;31019;43.780;25.948;2022-09-09T09:42:53;100921.75;;;32.90;41.12
45275;BME280;31019;43.780;25.948;2022-09-09T09:45:26;100903.38;;;32.94;38.46
45275;BME280;31019;43.780;25.948;2022-09-09T09:48:03;100903.03;;;32.39;42.59
45275;BME280;31019;43.780;25.948;2022-09-09T09:50:46;100897.69;;;32.87;42.09
45275;BME280;31019;43.780;25.948;2022-09-09T09:53:17;100909.25;;;32.92;40.73
45275;BME280;31019;43.780;25.948;2022-09-09T09:55:58;100900.03;;;33.32;39.75
45275;BME280;31019;43.780;25.948;2022-09-09T09:58:25;100904.84;;;33.35;40.42
45275;BME280;31019;43.780;25.948;2022-09-09T10:00:53;100896.72;;;32.95;42.63
45275;BME280;31019;43.780;25.948;2022-09-09T10:03:25;100902.06;;;33.19;40.53
45275;BME280;31019;43.780;25.948;2022-09-09T10:06:01;100901.63;;;33.33;39.15
45275;BME280;31019;43.780;25.948;2022-09-09T10:08:33;100905.91;;;33.15;40.09
45275;BME280;31019;43.780;25.948;2022-09-09T10:11:04;100902.88;;;33.36;39.77
45275;BME280;31019;43.780;25.948;2022-09-09T10:13:38;100904.41;;;33.17;41.00
45275;BME280;31019;43.780;25.948;2022-09-09T10:16:28;100900.81;;;33.64;37.55
45275;BME280;31019;43.780;25.948;2022-09-09T10:18:59;100902.78;;;33.99;38.25
45275;BME280;31019;43.780;25.948;2022-09-09T10:21:56;100904.16;;;33.89;38.38
45275;BME280;31019;43.780;25.948;2022-09-09T10:24:36;100903.69;;;34.03;38.42
45275;BME280;31019;43.780;25.948;2022-09-09T10:27:21;100901.22;;;34.37;37.63
45275;BME280;31019;43.780;25.948;2022-09-09T10:30:00;100899.25;;;33.00;43.75
45275;BME280;31019;43.780;25.948;2022-09-09T10:32:37;100894.78;;;33.74;39.52
45275;BME280;31019;43.780;25.948;2022-09-09T10:35:04;100893.31;;;34.16;40.33
45275;BME280;31019;43.780;25.948;2022-09-09T10:37:49;100891.06;;;34.22;38.49
45275;BME280;31019;43.780;25.948;2022-09-09T10:40:23;100897.38;;;34.03;40.30
45275;BME280;31019;43.780;25.948;2022-09-09T10:42:59;100885.31;;;33.09;41.28
45275;BME280;31019;43.780;25.948;2022-09-09T10:45:34;100885.66;;;31.82;45.16
45275;BME280;31019;43.780;25.948;2022-09-09T10:48:15;100881.31;;;33.54;40.75
45275;BME280;31019;43.780;25.948;2022-09-09T10:50:47;100880.44;;;33.85;38.88
45275;BME280;31019;43.780;25.948;2022-09-09T10:53:20;100888.81;;;34.27;37.84
45275;BME280;31019;43.780;25.948;2022-09-09T10:55:53;100884.69;;;34.17;38.48
45275;BME280;31019;43.780;25.948;2022-09-09T10:58:30;100884.19;;;34.12;34.57
45275;BME280;31019;43.780;25.948;2022-09-09T11:01:08;100884.63;;;34.33;36.69
45275;BME280;31019;43.780;25.948;2022-09-09T11:03:45;100874.00;;;34.74;34.52
45275;BME280;31019;43.780;25.948;2022-09-09T11:06:18;100874.00;;;34.97;33.99
45275;BME280;31019;43.780;25.948;2022-09-09T11:11:36;100880.03;;;35.26;33.95
45275;BME280;31019;43.780;25.948;2022-09-09T11:14:05;100879.88;;;34.96;33.94
45275;BME280;31019;43.780;25.948;2022-09-09T11:16:39;100869.25;;;35.70;32.88
45275;BME280;31019;43.780;25.948;2022-09-09T11:19:14;100867.53;;;35.36;35.57
45275;BME280;31019;43.780;25.948;2022-09-09T11:21:45;100864.09;;;35.42;32.34
45275;BME280;31019;43.780;25.948;2022-09-09T11:24:23;100861.25;;;34.89;34.03
45275;BME280;31019;43.780;25.948;2022-09-09T11:27:03;100865.50;;;34.83;35.73
45275;BME280;31019;43.780;25.948;2022-09-09T11:29:52;100866.19;;;34.57;38.01
45275;BME280;31019;43.780;25.948;2022-09-09T11:35:41;100861.59;;;34.64;35.80
45275;BME280;31019;43.780;25.948;2022-09-09T11:38:27;100855.31;;;34.25;37.27
45275;BME280;31019;43.780;25.948;2022-09-09T11:40:57;100855.28;;;34.64;34.99
45275;BME280;31019;43.780;25.948;2022-09-09T11:43:31;100852.50;;;34.83;34.49
45275;BME280;31019;43.780;25.948;2022-09-09T11:46:00;100850.56;;;34.87;33.03
45275;BME280;31019;43.780;25.948;2022-09-09T11:48:29;100844.28;;;34.87;34.39
45275;BME280;31019;43.780;25.948;2022-09-09T11:51:06;100837.66;;;35.68;34.37
45275;BME280;31019;43.780;25.948;2022-09-09T11:53:46;100844.44;;;35.47;34.58
45275;BME280;31019;43.780;25.948;2022-09-09T11:56:23;100834.00;;;35.60;34.93
45275;BME280;31019;43.780;25.948;2022-09-09T11:58:57;100829.69;;;35.63;34.50
45275;BME280;31019;43.780;25.948;2022-09-09T12:01:37;100837.03;;;34.79;35.85
45275;BME280;31019;43.780;25.948;2022-09-09T12:07:02;100834.53;;;34.93;33.79
45275;BME280;31019;43.780;25.948;2022-09-09T12:09:43;100833.63;;;35.35;34.90
45275;BME280;31019;43.780;25.948;2022-09-09T12:12:27;100824.81;;;35.83;31.31
45275;BME280;31019;43.780;25.948;2022-09-09T12:15:03;100819.13;;;35.15;34.91
45275;BME280;31019;43.780;25.948;2022-09-09T12:17:43;100821.44;;;34.44;38.17
45275;BME280;31019;43.780;25.948;2022-09-09T12:20:12;100810.41;;;35.66;34.68
45275;BME280;31019;43.780;25.948;2022-09-09T12:22:45;100808.44;;;35.67;32.40
45275;BME280;31019;43.780;25.948;2022-09-09T12:25:19;100801.53;;;35.53;31.50
45275;BME280;31019;43.780;25.948;2022-09-09T12:27:54;100805.84;;;35.24;32.74
45275;BME280;31019;43.780;25.948;2022-09-09T12:30:29;100796.69;;;34.71;35.08
45275;BME280;31019;43.780;25.948;2022-09-09T12:33:01;100803.78;;;34.68;33.08
45275;BME280;31019;43.780;25.948;2022-09-09T12:35:28;100802.31;;;34.32;35.76
45275;BME280;31019;43.780;25.948;2022-09-09T12:37:57;100794.09;;;34.35;35.08
45275;BME280;31019;43.780;25.948;2022-09-09T12:40:25;100792.25;;;34.43;37.93
45275;BME280;31019;43.780;25.948;2022-09-09T12:42:52;100789.34;;;34.55;36.92
45275;BME280;31019;43.780;25.948;2022-09-09T12:45:20;100781.00;;;33.90;40.72
45275;BME280;31019;43.780;25.948;2022-09-09T12:47:51;100774.13;;;33.45;39.76
45275;BME280;31019;43.780;25.948;2022-09-09T12:50:21;100766.66;;;31.01;45.93
45275;BME280;31019;43.780;25.948;2022-09-09T12:52:50;100774.53;;;29.78;51.34
45275;BME280;31019;43.780;25.948;2022-09-09T12:55:19;100764.28;;;31.77;45.03
45275;BME280;31019;43.780;25.948;2022-09-09T12:57:46;100770.22;;;31.91;45.17
45275;BME280;31019;43.780;25.948;2022-09-09T13:00:16;100759.53;;;33.60;41.20
45275;BME280;31019;43.780;25.948;2022-09-09T13:02:48;100754.19;;;33.87;39.89
45275;BME280;31019;43.780;25.948;2022-09-09T13:05:19;100749.25;;;35.07;34.75
45275;BME280;31019;43.780;25.948;2022-09-09T13:07:46;100757.47;;;34.35;39.12
45275;BME280;31019;43.780;25.948;2022-09-09T13:10:13;100744.69;;;34.69;37.09
45275;BME280;31019;43.780;25.948;2022-09-09T13:12:41;100752.56;;;36.55;34.14
45275;BME280;31019;43.780;25.948;2022-09-09T13:15:18;100738.56;;;36.82;30.34
45275;BME280;31019;43.780;25.948;2022-09-09T13:17:49;100749.59;;;34.37;38.05
45275;BME280;31019;43.780;25.948;2022-09-09T13:20:18;100757.09;;;33.74;43.24
45275;BME280;31019;43.780;25.948;2022-09-09T13:22:46;100753.03;;;34.07;38.90